Latest Weather Observations for Perth

IDW60801

Issued at 10:02 am WST Monday 26 January 2015 (issued every 30 minutes, with the page automatically refreshed every 10 minutes)

About weather observations | Map of weather stations | Latest weather observations for WA | Other Formats
Station Details ID: 009225 Name: PERTH METRO Lat: -31.92 Lon: 115.87 Height: 24.9 m
Data from the previous 72 hours. | See also: Recent months at Perth
Date/Time
WST
Temp
°C
App
Temp
°C
Dew
Point
Rel
Hum
%
Delta-T
°C
Wind Press
QNH
hPa
Press
MSL
hPa
Rain
since 9 am
mm
Dir
 
Spd
km/h
Gust
km/h
Spd
kts
Gust
kts
26/10:00am 26.4 23.6 10.1 36 9.1 E 15 30 8 16 1012.5 1012.3 0.0
26/09:30am 25.2 23.4 11.0 41 8.0 ESE 11 19 6 10 1012.9 1012.7 0.0
26/09:00am 23.1 20.4 10.5 45 6.9 E 15 30 8 16 1013.4 1013.2 0.0
26/08:30am 21.5 18.2 9.7 47 6.4 E 17 30 9 16 1013.5 1013.3 0.0
26/08:00am 20.6 17.4 11.2 55 5.2 E 19 35 10 19 1013.8 1013.6 0.0
26/07:30am 19.4 16.3 10.4 56 4.9 E 17 39 9 21 1014.0 1013.8 0.0
26/07:00am 18.2 15.3 9.8 58 4.4 E 15 30 8 16 1014.3 1014.1 0.0
26/06:30am 17.5 14.6 9.7 60 4.1 E 15 28 8 15 1014.1 1013.9 0.0
26/06:00am 16.8 14.7 9.7 63 3.7 ENE 11 19 6 10 1014.1 1013.9 0.0
26/05:30am 16.9 13.6 9.6 62 3.8 E 17 28 9 15 1013.9 1013.7 0.0
26/05:00am 17.0 14.0 9.4 61 4.0 E 15 26 8 14 1013.7 1013.5 0.0
26/04:30am 17.1 14.2 9.5 61 4.0 ESE 15 30 8 16 1013.8 1013.6 0.0
26/04:00am 17.4 15.6 9.6 60 4.1 E 9 17 5 9 1013.6 1013.4 0.0
26/03:30am 18.2 15.5 9.0 55 4.8 ESE 13 22 7 12 1013.8 1013.6 0.0
26/03:00am 19.0 15.5 8.9 52 5.3 E 17 39 9 21 1013.7 1013.5 0.0
26/02:30am 20.0 16.9 8.7 48 5.9 E 15 28 8 15 1013.6 1013.4 0.0
26/02:00am 20.5 18.5 8.5 46 6.3 E 9 20 5 11 1013.7 1013.5 0.0
26/01:30am 21.2 18.8 8.5 44 6.7 E 11 24 6 13 1013.7 1013.5 0.0
26/01:00am 21.6 18.6 7.8 41 7.2 ESE 13 26 7 14 1013.7 1013.5 0.0
26/12:30am 22.5 19.1 7.5 38 7.8 SE 15 30 8 16 1013.7 1013.5 0.0
26/12:00am 23.6 20.4 6.8 34 8.7 ESE 13 30 7 16 1013.5 1013.3 0.0
 
Date/Time
WST
Temp
°C
App
Temp
°C
Dew
Point
Rel
Hum
%
Delta-T
°C
Wind Press
QNH
hPa
Press
MSL
hPa
Rain
since 9 am
mm
Dir
 
Spd
km/h
Gust
km/h
Spd
kts
Gust
kts
25/11:30pm 24.7 20.9 6.0 30 9.6 SE 15 28 8 15 1013.4 1013.2 0.0
25/11:00pm 24.7 21.2 5.5 29 9.8 SE 13 19 7 10 1013.3 1013.1 0.0
25/10:30pm 25.2 22.0 4.9 27 10.2 SE 11 19 6 10 1013.1 1012.9 0.0
25/10:00pm 25.4 22.6 5.1 27 10.3 SE 9 17 5 9 1013.2 1013.0 0.0
25/09:30pm 25.4 23.3 5.6 28 10.1 SE 6 11 3 6 1013.1 1012.9 0.0
25/09:00pm 26.7 24.3 5.1 25 11.0 SE 7 13 4 7 1012.9 1012.7 0.0
25/08:30pm 27.0 24.5 4.7 24 11.3 SE 7 15 4 8 1012.6 1012.4 0.0
25/08:00pm 28.1 25.5 4.4 22 12.1 SE 7 13 4 7 1012.3 1012.1 0.0
25/07:30pm 29.5 26.0 3.5 19 13.2 SE 11 17 6 9 1012.0 1011.9 0.0
25/07:00pm 30.6 27.0 2.8 17 14.0 SE 11 20 6 11 1011.9 1011.8 0.0
25/06:30pm 31.0 28.3 5.4 20 13.5 SE 9 17 5 9 1011.6 1011.5 0.0
25/06:00pm 31.5 30.1 10.8 28 12.0 SE 9 19 5 10 1011.4 1011.3 0.0
25/05:30pm 31.5 29.9 12.8 32 11.1 SSW 13 19 7 10 1011.4 1011.3 0.0
25/05:00pm 31.3 29.4 10.6 28 11.9 S 11 20 6 11 1011.5 1011.4 0.0
25/04:30pm 32.7 28.5 3.6 16 15.0 SSE 15 20 8 11 1011.8 1011.7 0.0
25/04:00pm 32.6 29.3 4.4 17 14.8 ESE 11 24 6 13 1012.3 1012.1 0.0
25/03:30pm 32.2 28.3 3.2 16 14.8 ESE 13 26 7 14 1012.7 1012.5 0.0
25/03:00pm 32.4 28.8 5.0 18 14.5 SE 13 20 7 11 1013.1 1012.9 0.0
25/02:30pm 32.0 28.7 6.2 20 13.9 ESE 13 22 7 12 1013.3 1013.1 0.0
25/02:00pm 31.3 28.4 6.4 21 13.4 SE 11 22 6 12 1013.6 1013.4 0.0
25/01:30pm 30.2 26.5 6.1 22 12.8 SE 15 22 8 12 1014.1 1013.9 0.0
25/01:00pm 29.5 26.2 8.0 26 11.7 ESE 15 24 8 13 1014.4 1014.2 0.0
25/12:30pm 28.7 25.7 9.4 30 10.7 SE 15 26 8 14 1014.8 1014.6 0.0
25/12:00pm 28.4 26.0 10.1 32 10.3 ESE 13 20 7 11 1015.1 1014.9 0.0
25/11:30am 26.8 24.1 10.5 36 9.2 SE 15 28 8 15 1015.4 1015.2 0.0
25/11:00am 27.1 25.0 11.2 37 9.0 ESE 13 28 7 15 1015.8 1015.6 0.0
25/10:30am 25.7 23.6 11.1 40 8.2 ESE 13 24 7 13 1016.2 1016.0 0.0
25/10:00am 24.6 22.3 10.5 41 7.8 E 13 28 7 15 1016.5 1016.3 0.0
25/09:30am 23.6 21.5 11.0 45 7.0 E 13 24 7 13 1016.8 1016.6 0.0
25/09:00am 22.8 20.0 11.2 48 6.5 ESE 17 28 9 15 1016.7 1016.5 0.0
25/08:30am 21.3 18.3 10.8 51 5.8 E 17 32 9 17 1016.7 1016.5 0.0
25/08:00am 20.6 17.7 11.0 54 5.3 E 17 32 9 17 1016.7 1016.5 0.0
25/07:30am 19.8 18.1 11.3 58 4.7 ESE 11 20 6 11 1016.6 1016.4 0.0
25/07:00am 18.6 16.5 11.2 62 4.0 E 13 22 7 12 1016.7 1016.5 0.0
25/06:30am 17.9 16.1 10.8 63 3.8 E 11 20 6 11 1016.7 1016.5 0.0
25/06:00am 17.3 15.8 10.7 65 3.5 E 9 22 5 12 1016.3 1016.1 0.0
25/05:30am 17.4 15.5 10.5 64 3.7 ESE 11 28 6 15 1015.8 1015.6 0.0
25/05:00am 17.7 15.4 10.6 63 3.8 ESE 13 22 7 12 1015.5 1015.3 0.0
25/04:30am 18.1 16.3 10.7 62 4.0 ESE 11 24 6 13 1015.0 1014.8 0.0
25/04:00am 18.4 16.2 10.7 61 4.1 E 13 24 7 13 1014.7 1014.5 0.0
25/03:30am 18.8 16.6 10.9 60 4.3 E 13 22 7 12 1014.6 1014.4 0.0
25/03:00am 19.5 17.7 10.8 57 4.7 E 11 20 6 11 1014.4 1014.2 0.0
25/02:30am 20.4 17.7 10.5 53 5.4 E 15 30 8 16 1014.3 1014.1 0.0
25/02:00am 21.1 19.1 10.0 49 6.0 E 11 19 6 10 1014.0 1013.8 0.0
25/01:30am 20.2 18.6 10.3 53 5.4 E 9 22 5 12 1014.1 1013.9 0.0
25/01:00am 19.1 18.6 12.6 66 3.6 SE 7 15 4 8 1014.2 1014.0 0.0
25/12:30am 19.6 19.2 13.1 66 3.7 SSE 7 13 4 7 1014.2 1014.0 0.0
25/12:00am 20.4 19.4 13.4 64 4.0 SSE 11 19 6 10 1014.1 1013.9 0.0
 
Date/Time
WST
Temp
°C
App
Temp
°C
Dew
Point
Rel
Hum
%
Delta-T
°C
Wind Press
QNH
hPa
Press
MSL
hPa
Rain
since 9 am
mm
Dir
 
Spd
km/h
Gust
km/h
Spd
kts
Gust
kts
24/11:30pm 20.9 20.0 13.6 63 4.2 S 11 19 6 10 1014.2 1014.0 0.0
24/11:00pm 21.2 20.9 14.4 65 4.0 S 9 15 5 8 1014.2 1014.0 0.0
24/10:30pm 21.6 20.9 14.3 63 4.3 S 11 19 6 10 1014.3 1014.1 0.0
24/10:00pm 21.8 21.1 14.2 62 4.4 S 11 19 6 10 1014.5 1014.3 0.0
24/09:30pm 21.9 20.8 14.3 62 4.4 S 13 20 7 11 1014.4 1014.2 0.0
24/09:00pm 22.0 20.9 14.4 62 4.5 S 13 22 7 12 1014.3 1014.1 0.0
24/08:30pm 22.2 21.1 14.3 61 4.6 S 13 22 7 12 1014.3 1014.1 0.0
24/08:00pm 22.4 21.0 14.5 61 4.6 S 15 32 8 17 1014.0 1013.8 0.0
24/07:30pm 22.3 21.6 15.4 65 4.1 SSW 13 26 7 14 1013.9 1013.7 0.0
24/07:00pm 22.6 22.5 15.9 66 4.0 SSW 11 24 6 13 1014.0 1013.8 0.0
24/06:30pm 23.5 22.6 15.8 62 4.7 SW 15 24 8 13 1013.7 1013.5 0.0
24/06:00pm 24.4 22.6 15.6 58 5.3 SW 19 33 10 18 1013.5 1013.3 0.0
24/05:30pm 24.6 22.6 15.5 57 5.5 SW 20 32 11 17 1013.4 1013.2 0.0
24/05:00pm 25.2 23.7 15.2 54 6.0 SW 17 30 9 16 1013.4 1013.2 0.0
24/04:30pm 24.7 21.8 15.1 55 5.8 SW 24 35 13 19 1013.4 1013.2 0.0
24/04:00pm 26.1 23.6 14.2 48 7.1 SSW 20 35 11 19 1013.6 1013.4 0.0
24/03:30pm 26.8 24.6 14.9 48 7.2 SW 20 33 11 18 1013.6 1013.4 0.0
24/03:00pm 25.9 23.7 15.0 51 6.6 SW 20 32 11 17 1013.8 1013.6 0.0
24/02:30pm 27.3 25.7 14.0 44 7.9 SW 15 24 8 13 1014.0 1013.8 0.0
24/02:00pm 26.1 24.4 13.6 46 7.4 SW 15 28 8 15 1014.2 1014.0 0.0
24/01:30pm 28.5 26.9 14.0 41 8.7 SSW 15 26 8 14 1014.3 1014.1 0.0
24/01:00pm 27.7 24.4 11.7 37 9.2 SW 20 30 11 16 1014.6 1014.4 0.0
24/12:30pm 28.7 26.6 8.4 28 11.1 SW 9 19 5 10 1015.0 1014.8 0.0
24/12:00pm 26.9 24.4 8.4 31 10.0 S 11 20 6 11 1015.4 1015.2 0.0
24/11:30am 26.1 23.6 8.1 32 9.7 SSE 11 20 6 11 1015.6 1015.4 0.0
24/11:00am 25.8 23.8 10.0 37 8.7 SSE 11 20 6 11 1016.0 1015.8 0.0
24/10:30am 24.6 22.7 9.0 37 8.4 SE 9 15 5 8 1016.2 1016.0 0.0
24/10:00am 23.4 21.0 8.7 39 7.8 SE 11 19 6 10 1016.3 1016.1 0.0
24/09:30am 23.2 21.1 9.6 42 7.4 SSE 11 24 6 13 1016.4 1016.2 0.0
24/09:00am 21.4 18.7 9.0 45 6.6 SSE 13 19 7 10 1016.6 1016.4 0.0
24/08:30am 20.6 18.5 9.8 50 5.8 SE 11 19 6 10 1016.6 1016.4 0.0
24/08:00am 20.0 17.6 9.9 52 5.4 SSE 13 20 7 11 1016.7 1016.5 0.0
24/07:30am 19.4 16.7 9.0 51 5.5 SE 13 20 7 11 1016.7 1016.5 0.0
24/07:00am 18.6 16.2 9.9 57 4.6 SE 13 20 7 11 1016.4 1016.2 0.0
24/06:30am 17.3 15.5 10.7 65 3.5 SSE 11 17 6 9 1015.9 1015.7 0.0
24/06:00am 16.4 14.6 10.7 69 3.0 SSE 11 17 6 9 1015.7 1015.5 0.0
24/05:30am 16.6 14.8 10.9 69 3.1 S 11 17 6 9 1015.2 1015.0 0.0
24/05:00am 17.0 15.2 10.8 67 3.3 SSE 11 17 6 9 1014.9 1014.7 0.0
24/04:30am 17.3 15.6 11.1 67 3.3 S 11 17 6 9 1014.4 1014.2 0.0
24/04:00am 17.4 16.1 11.4 68 3.3 S 9 13 5 7 1014.2 1014.0 0.0
24/03:30am 17.5 16.3 11.5 68 3.3 S 9 19 5 10 1014.1 1013.9 0.0
24/03:00am 17.6 16.8 11.8 69 3.2 S 7 13 4 7 1014.0 1013.8 0.0
24/02:30am 17.6 16.9 12.1 70 3.0 S 7 11 4 6 1013.8 1013.6 0.0
24/02:00am 17.8 17.1 12.0 69 3.2 SSE 7 9 4 5 1013.9 1013.7 0.0
24/01:30am 18.4 16.9 11.9 66 3.6 SSE 11 19 6 10 1013.7 1013.5 0.0
24/01:00am 19.0 17.6 12.3 65 3.7 SSE 11 15 6 8 1013.6 1013.4 0.0
24/12:30am 19.6 17.5 12.4 63 4.0 SSE 15 22 8 12 1013.5 1013.3 0.0
24/12:00am 20.1 18.2 13.1 64 4.0 S 15 24 8 13 1013.4 1013.2 0.0
 
Date/Time
WST
Temp
°C
App
Temp
°C
Dew
Point
Rel
Hum
%
Delta-T
°C
Wind Press
QNH
hPa
Press
MSL
hPa
Rain
since 9 am
mm
Dir
 
Spd
km/h
Gust
km/h
Spd
kts
Gust
kts
23/11:30pm 20.4 19.1 13.6 65 3.9 S 13 20 7 11 1013.6 1013.4 0.0
23/11:00pm 20.7 19.8 14.8 69 3.5 S 13 20 7 11 1013.6 1013.4 0.0
23/10:30pm 20.9 20.2 15.4 71 3.3 S 13 22 7 12 1013.7 1013.5 0.0
23/10:00pm 21.0 20.5 15.8 72 3.1 S 13 20 7 11 1013.7 1013.5 0.0
23/09:30pm 21.0 20.5 16.0 73 3.0 SSW 13 24 7 13 1013.8 1013.6 0.0
23/09:00pm 20.8 20.9 16.4 76 2.7 SSW 11 19 6 10 1013.9 1013.7 0.0
23/08:30pm 20.8 20.6 16.6 77 2.5 SSW 13 22 7 12 1013.8 1013.6 0.0
23/08:00pm 21.0 20.0 16.6 76 2.7 SW 17 26 9 14 1013.7 1013.5 0.0
23/07:30pm 21.5 21.0 15.8 70 3.4 SW 13 20 7 11 1013.8 1013.6 0.0
23/07:00pm 21.7 20.4 15.8 69 3.5 SW 17 28 9 15 1013.8 1013.6 0.0
23/06:30pm 22.6 21.0 15.9 66 4.0 SW 19 32 10 17 1013.7 1013.5 0.0
23/06:00pm 23.4 21.6 16.0 63 4.5 SW 20 33 11 18 1013.5 1013.3 0.0
23/05:30pm 24.1 21.9 14.8 56 5.5 SSW 20 37 11 20 1013.3 1013.1 0.0
23/05:00pm 25.2 23.0 14.9 52 6.2 SSW 20 30 11 16 1013.3 1013.1 0.0
23/04:30pm 25.3 23.1 15.0 53 6.2 SW 20 30 11 16 1013.2 1013.0 0.0
23/04:00pm 26.8 24.6 14.5 46 7.4 SSW 19 30 10 16 1013.2 1013.0 0.0
23/03:30pm 26.4 24.4 15.4 50 6.7 SSW 20 28 11 15 1013.2 1013.0 0.0
23/03:00pm 27.6 25.7 15.3 47 7.5 SSW 19 30 10 16 1013.4 1013.2 0.0
23/02:30pm 28.1 26.8 15.7 46 7.6 SW 17 32 9 17 1013.4 1013.2 0.0
23/02:00pm 28.0 25.9 14.6 44 8.1 SW 19 28 10 15 1013.5 1013.3 0.0
23/01:30pm 27.8 26.1 14.8 45 7.9 SW 17 24 9 13 1013.7 1013.5 0.0
23/01:00pm 28.2 27.1 14.4 42 8.3 SW 13 22 7 12 1013.8 1013.6 0.0
23/12:30pm 29.6 28.2 14.6 40 9.1 SW 15 22 8 12 1014.1 1013.9 0.0
23/12:00pm 29.4 28.2 11.5 33 10.3 S 9 17 5 9 1014.4 1014.2 0.0
23/11:30am 27.4 26.1 11.4 37 9.1 SW 9 17 5 9 1014.7 1014.5 0.0
23/11:00am 27.4 26.8 11.8 38 9.0 SE 6 13 3 7 1014.8 1014.6 0.0
23/10:30am 26.3 25.6 12.0 41 8.2 SSW 7 17 4 9 1015.1 1014.9 0.0

Other Formats:

Comma delimited format used in spreadsheet applications
http://www.bom.gov.au/fwo/IDW60801/IDW60801.94608.axf

JavaScript Object Notation format (JSON) in row-major order
http://www.bom.gov.au/fwo/IDW60801/IDW60801.94608.json